createdAt,value
2022-07-27T00:04:31.491Z,16.98
2022-07-27T00:09:37.276Z,16.95
2022-07-27T00:14:43.153Z,17.02
2022-07-27T00:19:48.933Z,17.04
2022-07-27T00:24:54.664Z,17.04
2022-07-27T00:30:00.512Z,17.04
2022-07-27T00:35:08.199Z,17.04
2022-07-27T00:40:14.488Z,17.03
2022-07-27T00:45:20.304Z,17.00
2022-07-27T00:50:26.914Z,16.95
2022-07-27T00:55:34.225Z,16.91
2022-07-27T01:00:40.814Z,16.92
2022-07-27T01:05:47.853Z,16.95
2022-07-27T01:10:55.184Z,16.95
2022-07-27T01:16:03.718Z,16.98
2022-07-27T01:21:10.662Z,17.00
2022-07-27T01:26:16.686Z,17.03
2022-07-27T01:31:22.543Z,17.07
2022-07-27T01:36:28.759Z,17.09
2022-07-27T01:41:34.983Z,17.09
2022-07-27T01:46:40.853Z,17.08
2022-07-27T01:51:46.898Z,17.06
2022-07-27T01:56:53.019Z,17.05
2022-07-27T02:01:59.325Z,17.01
2022-07-27T02:07:05.367Z,16.95
2022-07-27T02:12:30.283Z,16.91
2022-07-27T02:17:36.592Z,16.83
2022-07-27T02:22:43.120Z,16.71
2022-07-27T02:27:49.832Z,16.63
2022-07-27T02:32:55.823Z,16.56
2022-07-27T02:38:01.904Z,16.48
2022-07-27T02:43:07.726Z,16.39
2022-07-27T02:48:13.766Z,16.36
2022-07-27T02:53:19.671Z,16.39
2022-07-27T02:58:25.479Z,16.43
2022-07-27T03:03:35.902Z,16.47
2022-07-27T03:08:42.817Z,16.51
2022-07-27T03:13:48.567Z,16.56
2022-07-27T03:18:54.429Z,16.62
2022-07-27T03:24:00.383Z,16.65
2022-07-27T03:29:06.355Z,16.67
2022-07-27T03:34:12.354Z,16.71
2022-07-27T03:39:18.233Z,16.72
2022-07-27T03:44:24.146Z,16.72
2022-07-27T03:49:30.373Z,16.69
2022-07-27T03:54:36.276Z,16.68
2022-07-27T03:59:42.714Z,16.68
2022-07-27T04:04:48.537Z,16.71
2022-07-27T04:09:54.439Z,16.77
2022-07-27T04:15:00.359Z,16.76
2022-07-27T04:20:08.336Z,16.76
2022-07-27T04:25:14.337Z,16.77
2022-07-27T04:30:20.428Z,16.76
2022-07-27T04:35:26.994Z,16.71
2022-07-27T04:40:34.995Z,16.70
2022-07-27T04:45:41.062Z,17.17
2022-07-27T04:50:47.922Z,17.72
2022-07-27T04:55:53.779Z,18.24
2022-07-27T05:01:00.443Z,18.88
2022-07-27T05:06:06.723Z,21.28
2022-07-27T05:11:12.607Z,24.89
2022-07-27T05:16:18.721Z,27.59
2022-07-27T05:21:25.182Z,30.00
2022-07-27T05:26:31.419Z,31.63
2022-07-27T05:31:37.313Z,32.63
2022-07-27T05:36:43.391Z,33.93
2022-07-27T05:41:49.762Z,34.95
2022-07-27T05:46:56.772Z,35.64
2022-07-27T05:52:03.173Z,36.04
2022-07-27T05:57:09.044Z,36.43
2022-07-27T06:02:14.853Z,37.07
2022-07-27T06:07:39.872Z,37.95
2022-07-27T06:12:47.181Z,38.75
2022-07-27T06:17:53.995Z,39.34
2022-07-27T06:23:07.584Z,39.37
2022-07-27T06:28:14.229Z,38.83
2022-07-27T06:35:23.390Z,38.84
2022-07-27T06:40:30.125Z,38.65
2022-07-27T06:45:36.428Z,39.07
2022-07-27T06:50:40.763Z,39.88
2022-07-27T06:55:46.733Z,40.75
2022-07-27T07:00:52.881Z,41.34
2022-07-27T07:05:58.979Z,41.35
2022-07-27T07:11:05.218Z,41.32
2022-07-27T07:16:11.345Z,40.97
2022-07-27T07:21:18.753Z,41.22
2022-07-27T07:26:24.664Z,41.01
2022-07-27T07:31:30.707Z,40.41
2022-07-27T07:36:37.010Z,40.48
2022-07-27T07:41:43.193Z,40.72
2022-07-27T07:46:49.968Z,40.91
2022-07-27T07:51:59.123Z,41.11
2022-07-27T07:57:10.126Z,41.20
2022-07-27T08:08:03.888Z,41.50
2022-07-27T08:13:33.379Z,42.00
2022-07-27T08:19:18.383Z,42.53
2022-07-27T08:24:29.237Z,42.73
2022-07-27T08:30:20.204Z,42.56
2022-07-27T08:35:45.182Z,41.86
2022-07-27T08:40:51.676Z,41.43
2022-07-27T08:46:00.460Z,41.01
2022-07-27T08:51:09.715Z,40.67
2022-07-27T08:56:16.294Z,40.54
2022-07-27T09:01:22.293Z,40.54
2022-07-27T09:06:53.238Z,40.32
2022-07-27T09:12:09.705Z,39.72
2022-07-27T09:22:54.761Z,39.53
2022-07-27T09:28:01.117Z,39.57
2022-07-27T09:33:08.109Z,39.25
2022-07-27T09:38:19.436Z,38.53
2022-07-27T09:48:51.606Z,33.92
2022-07-27T09:53:59.419Z,33.30
2022-07-27T09:59:05.626Z,33.14
2022-07-27T10:04:11.758Z,31.90
2022-07-27T10:09:20.048Z,32.17
2022-07-27T10:14:26.133Z,33.43
2022-07-27T10:19:42.040Z,32.96
2022-07-27T10:25:00.648Z,32.40
2022-07-27T10:30:24.064Z,31.66
2022-07-27T10:35:44.603Z,31.54
2022-07-27T10:41:23.964Z,31.51
2022-07-27T10:46:32.172Z,32.71
2022-07-27T10:51:38.446Z,33.82
2022-07-27T10:56:51.039Z,34.55
2022-07-27T11:02:00.139Z,34.84
2022-07-27T11:07:24.865Z,35.06
2022-07-27T11:12:32.075Z,35.25
2022-07-27T11:17:56.781Z,35.02
2022-07-27T11:28:47.688Z,32.48
2022-07-27T11:33:59.293Z,31.58
2022-07-27T11:39:06.966Z,31.24
2022-07-27T11:44:15.142Z,31.02
2022-07-27T11:49:26.803Z,31.65
2022-07-27T11:54:34.875Z,32.17
2022-07-27T11:59:43.287Z,32.17
2022-07-27T12:04:50.498Z,31.37
2022-07-27T12:09:58.319Z,30.56
2022-07-27T12:20:48.634Z,28.71
2022-07-27T12:25:54.630Z,28.16
2022-07-27T12:31:00.737Z,28.12
2022-07-27T12:36:09.110Z,28.06
2022-07-27T12:41:26.532Z,28.15
2022-07-27T12:46:32.460Z,27.82
2022-07-27T12:51:38.206Z,27.64
2022-07-27T12:56:44.419Z,27.33
2022-07-27T13:01:53.009Z,26.92
2022-07-27T13:06:59.484Z,26.47
2022-07-27T13:12:07.057Z,26.16
2022-07-27T13:17:20.889Z,25.98
2022-07-27T13:22:26.878Z,25.80
2022-07-27T13:27:32.813Z,25.73
2022-07-27T13:32:39.324Z,25.76
2022-07-27T13:37:45.788Z,25.81
2022-07-27T13:42:51.776Z,25.81
2022-07-27T13:47:57.639Z,25.73
2022-07-27T13:53:03.498Z,25.65
2022-07-27T13:58:09.419Z,25.74
2022-07-27T14:03:15.558Z,26.26
2022-07-27T14:08:21.885Z,26.65
2022-07-27T14:13:29.428Z,26.59
2022-07-27T14:18:36.873Z,26.58
2022-07-27T14:23:42.962Z,26.38
2022-07-27T14:28:49.283Z,26.25
2022-07-27T14:33:55.423Z,25.89
2022-07-27T14:39:01.260Z,25.78
2022-07-27T14:44:07.858Z,25.51
2022-07-27T14:49:17.313Z,25.52
2022-07-27T14:54:23.350Z,25.62
2022-07-27T14:59:29.333Z,25.75
2022-07-27T15:04:35.127Z,25.72
2022-07-27T15:09:41.041Z,25.66
2022-07-27T15:14:47.148Z,25.72
2022-07-27T15:19:53.139Z,25.29
2022-07-27T15:24:59.265Z,24.95
2022-07-27T15:30:06.289Z,24.90
2022-07-27T15:35:12.359Z,25.04
2022-07-27T15:40:38.673Z,25.22
2022-07-27T15:45:48.290Z,25.24
2022-07-27T15:50:54.847Z,25.24
2022-07-27T15:56:00.957Z,25.25
2022-07-27T16:01:08.366Z,25.14
2022-07-27T16:06:20.214Z,24.86
2022-07-27T16:11:26.409Z,24.54
2022-07-27T16:16:32.383Z,24.29
2022-07-27T16:21:53.890Z,24.15
2022-07-27T16:27:03.027Z,24.08
2022-07-27T16:32:09.537Z,24.08
2022-07-27T16:37:15.484Z,24.09
2022-07-27T16:42:21.243Z,23.99
2022-07-27T16:47:27.684Z,23.84
2022-07-27T16:52:33.803Z,23.73
2022-07-27T16:57:39.814Z,23.58
2022-07-27T17:02:46.007Z,23.37
2022-07-27T17:07:52.536Z,23.11
2022-07-27T17:12:58.812Z,22.89
2022-07-27T17:18:05.332Z,22.79
2022-07-27T17:23:12.151Z,22.71
2022-07-27T17:28:17.988Z,22.49
2022-07-27T17:33:23.803Z,22.16
2022-07-27T17:38:31.514Z,21.88
2022-07-27T17:43:38.900Z,21.56
2022-07-27T17:48:45.058Z,21.29
2022-07-27T17:53:51.033Z,21.04
2022-07-27T17:59:09.264Z,20.83
2022-07-27T18:04:23.003Z,20.64
2022-07-27T18:09:28.992Z,20.45
2022-07-27T18:14:34.739Z,20.19
2022-07-27T18:19:44.374Z,19.97
2022-07-27T18:24:51.758Z,19.78
2022-07-27T18:29:57.675Z,19.57
2022-07-27T18:35:03.759Z,19.34
2022-07-27T18:40:12.143Z,19.11
2022-07-27T18:45:18.259Z,18.82
2022-07-27T18:50:24.746Z,18.58
2022-07-27T18:55:32.200Z,18.36
2022-07-27T19:00:38.027Z,18.15
2022-07-27T19:05:44.885Z,17.95
2022-07-27T19:10:52.168Z,17.84
2022-07-27T19:16:00.649Z,17.80
2022-07-27T19:21:06.495Z,17.74
2022-07-27T19:26:12.299Z,17.62
2022-07-27T19:31:22.874Z,17.48
2022-07-27T19:36:29.892Z,17.35
2022-07-27T19:41:35.825Z,17.27
2022-07-27T19:46:41.724Z,17.15
2022-07-27T19:51:48.023Z,16.95
2022-07-27T19:56:53.923Z,16.79
2022-07-27T20:01:59.914Z,16.77
2022-07-27T20:07:09.898Z,16.87
2022-07-27T20:12:15.646Z,16.94
2022-07-27T20:17:21.498Z,17.01
2022-07-27T20:22:27.592Z,17.02
2022-07-27T20:27:33.602Z,16.94
2022-07-27T20:32:39.443Z,16.82
2022-07-27T20:37:46.570Z,16.67
2022-07-27T20:42:52.717Z,16.58
2022-07-27T20:47:58.513Z,16.55
2022-07-27T20:53:04.455Z,16.48
2022-07-27T20:58:11.405Z,16.40
2022-07-27T21:03:17.367Z,16.28
2022-07-27T21:08:23.343Z,16.16
2022-07-27T21:13:29.242Z,16.05
2022-07-27T21:18:35.749Z,15.93
2022-07-27T21:24:00.558Z,15.81
2022-07-27T21:29:09.294Z,15.73
2022-07-27T21:34:17.562Z,15.70
2022-07-27T21:39:24.933Z,15.70
2022-07-27T21:44:30.581Z,15.69
2022-07-27T21:49:36.224Z,15.66
2022-07-27T21:54:41.925Z,15.62
2022-07-27T21:59:47.546Z,15.56
2022-07-27T22:04:53.005Z,15.49
2022-07-27T22:09:58.475Z,15.37
2022-07-27T22:15:04.517Z,15.24
2022-07-27T22:20:11.116Z,15.09
2022-07-27T22:25:19.232Z,14.95
2022-07-27T22:30:24.870Z,14.76
2022-07-27T22:35:30.482Z,14.61
2022-07-27T22:40:35.870Z,14.62
2022-07-27T22:45:41.255Z,14.61
2022-07-27T22:50:47.366Z,14.59
2022-07-27T22:55:53.892Z,14.44
2022-07-27T23:01:00.018Z,14.24
2022-07-27T23:06:06.266Z,14.04
2022-07-27T23:11:12.379Z,13.89
2022-07-27T23:16:18.225Z,13.79
2022-07-27T23:21:23.721Z,13.79
2022-07-27T23:26:29.382Z,13.76
2022-07-27T23:31:35.528Z,13.69
2022-07-27T23:36:43.955Z,13.54
2022-07-27T23:41:50.152Z,13.37
2022-07-27T23:46:55.882Z,13.27
2022-07-27T23:52:02.750Z,13.21
2022-07-27T23:57:08.870Z,13.22
